Terminal Aerodrome Forecast
Issued by NWS

Home | Current Version | Previous Version | Graphics & Text | Print | Product List | Glossary On
Versions: 1 2 3 4 5 6 7 8 9 10 11 12 13 14 15 16 17 18 19 20 21
000
FTUS43 KICT 031335 AAA
TAFCNU
TAF AMD
KCNU 031335Z 0314/0412 00000KT 5SM BR SCT002 OVC015
     FM031500 04007KT P6SM OVC025
     FM032000 03013KT P6SM OVC035
     FM040100 07007KT P6SM OVC050=

USA.gov is the U.S. government's official web portal to all federal, state and local government web resources and services.